Gray Army Air Field
KGRF : now visible

Airfield :











YOU CAN JOIN US ON...

 
LOGIN :

Register | Disclaimer

   EN    FR    IT 

 









Legend :    VFR   Marginal VFR   IFR   Intensive IFR   Very Intensive IFR
Visi :
Ceiling :
>= 8 km
>= 3000ft
5 to 8 km
1000 to 3000 ft
1500m to 5 km
500 to 1000 ft
800 to 1500m
200 to 500 ft
< 800m
< 200 ft
Symbols :   Thunderstorms  Fog  Heavy snow  Heavy precipitations  Wind > 20 kt






- Airport Elevation : 300 ft


KGRF - Gray Army Air Field

CURRENT METAR :
  • 221258Z AUTO 15006KT 10SM OVC014 09/06 A2992 RMK AO2 OVC V BKN SLP135 T00900056 $

EXPIRED METARs :
  • 221158Z AUTO 16006KT 10SM OVC018 09/06 A2993 RMK AO2 SLP139 T00890055 10110 20081 53003 $
  • 221058Z AUTO 18005KT 10SM OVC016 09/05 A2992 RMK AO2 SLP135 T00890053 $

TAF TAF KGRF
Valid from the 21 at 21:00 until the 23 at 03:00 UTC


212055Z 2121/2303 28006KT 9999 FEW150 QNH2995INS
BECMG 2205/2206 22003KT 9999 SCT010 BKN030 QNH2994INS
BECMG 2209/2210 18003KT 9999 BKN010 OVC020 QNH2992INS
TEMPO 2212/2216 8000 BR BKN009
BECMG 2218/2219 22006KT 9999 BKN020 OVC040 QNH2991INS TX20/2122Z TN09/2212Z
KZSE FIR / North America



MET'MAP, your aeronautical weather chart ! - Copyright ORBIFLY December 2007 - Disclaimer

ORBIFLY MET'MAP TEAM :

Programming & Development : Alexandra Zaïnal
Concept & original design : Baudouin d'Aumeries
Assistance for programming : Marc-Olivier Méhu
Technical & hardware support : Manuel Goepfert

Contact : metmap@orbifly.com




SOURCES & CREDITS :

   NOAA       Earth
Advisory